sensor_id;sensor_type;location;lat;lon;timestamp;P1;durP1;ratioP1;P2;durP2;ratioP2
20397;SDS011;10358;49.590;11.030;2023-03-07T00:02:06;28.33;;;12.87;;
20397;SDS011;10358;49.590;11.030;2023-03-07T00:04:31;23.37;;;11.70;;
20397;SDS011;10358;49.590;11.030;2023-03-07T00:06:57;23.40;;;11.67;;
20397;SDS011;10358;49.590;11.030;2023-03-07T00:09:23;22.50;;;12.17;;
20397;SDS011;10358;49.590;11.030;2023-03-07T00:11:48;22.27;;;11.70;;
20397;SDS011;10358;49.590;11.030;2023-03-07T00:14:14;20.90;;;11.47;;
20397;SDS011;10358;49.590;11.030;2023-03-07T00:16:40;26.03;;;11.90;;
20397;SDS011;10358;49.590;11.030;2023-03-07T00:19:05;26.97;;;12.03;;
20397;SDS011;10358;49.590;11.030;2023-03-07T00:21:32;25.43;;;12.27;;
20397;SDS011;10358;49.590;11.030;2023-03-07T00:23:57;24.33;;;12.50;;
20397;SDS011;10358;49.590;11.030;2023-03-07T00:26:24;28.17;;;13.07;;
20397;SDS011;10358;49.590;11.030;2023-03-07T00:28:51;25.80;;;12.93;;
20397;SDS011;10358;49.590;11.030;2023-03-07T00:31:17;25.20;;;12.87;;
20397;SDS011;10358;49.590;11.030;2023-03-07T00:33:44;24.83;;;13.03;;
20397;SDS011;10358;49.590;11.030;2023-03-07T00:36:14;24.90;;;12.67;;
20397;SDS011;10358;49.590;11.030;2023-03-07T00:38:44;26.13;;;12.77;;
20397;SDS011;10358;49.590;11.030;2023-03-07T00:41:20;24.83;;;12.77;;
20397;SDS011;10358;49.590;11.030;2023-03-07T00:43:47;27.87;;;14.03;;
20397;SDS011;10358;49.590;11.030;2023-03-07T00:46:14;27.80;;;13.63;;
20397;SDS011;10358;49.590;11.030;2023-03-07T00:48:40;28.47;;;13.97;;
20397;SDS011;10358;49.590;11.030;2023-03-07T00:51:07;24.73;;;12.80;;
20397;SDS011;10358;49.590;11.030;2023-03-07T00:53:35;28.97;;;14.80;;
20397;SDS011;10358;49.590;11.030;2023-03-07T00:56:02;26.97;;;13.30;;
20397;SDS011;10358;49.590;11.030;2023-03-07T00:58:29;26.50;;;13.37;;
20397;SDS011;10358;49.590;11.030;2023-03-07T01:00:55;26.60;;;13.83;;
20397;SDS011;10358;49.590;11.030;2023-03-07T01:03:22;26.30;;;13.90;;
20397;SDS011;10358;49.590;11.030;2023-03-07T01:05:48;26.40;;;13.63;;
20397;SDS011;10358;49.590;11.030;2023-03-07T01:08:15;28.50;;;14.30;;
20397;SDS011;10358;49.590;11.030;2023-03-07T01:10:42;29.37;;;13.57;;
20397;SDS011;10358;49.590;11.030;2023-03-07T01:13:08;31.90;;;14.57;;
20397;SDS011;10358;49.590;11.030;2023-03-07T01:15:35;28.47;;;13.73;;
20397;SDS011;10358;49.590;11.030;2023-03-07T01:18:01;26.50;;;13.97;;
20397;SDS011;10358;49.590;11.030;2023-03-07T01:20:29;26.83;;;13.97;;
20397;SDS011;10358;49.590;11.030;2023-03-07T01:22:56;24.43;;;13.40;;
20397;SDS011;10358;49.590;11.030;2023-03-07T01:25:22;25.93;;;13.67;;
20397;SDS011;10358;49.590;11.030;2023-03-07T01:27:48;24.63;;;13.50;;
20397;SDS011;10358;49.590;11.030;2023-03-07T01:30:16;27.30;;;13.40;;
20397;SDS011;10358;49.590;11.030;2023-03-07T01:32:41;24.77;;;13.50;;
20397;SDS011;10358;49.590;11.030;2023-03-07T01:35:07;25.90;;;13.67;;
20397;SDS011;10358;49.590;11.030;2023-03-07T01:37:33;25.40;;;13.17;;
20397;SDS011;10358;49.590;11.030;2023-03-07T01:39:58;26.67;;;13.43;;
20397;SDS011;10358;49.590;11.030;2023-03-07T01:42:24;25.87;;;13.77;;
20397;SDS011;10358;49.590;11.030;2023-03-07T01:44:58;24.37;;;12.90;;
20397;SDS011;10358;49.590;11.030;2023-03-07T01:47:29;27.60;;;13.17;;
20397;SDS011;10358;49.590;11.030;2023-03-07T01:49:55;23.43;;;13.20;;
20397;SDS011;10358;49.590;11.030;2023-03-07T01:52:24;24.63;;;12.30;;
20397;SDS011;10358;49.590;11.030;2023-03-07T01:54:57;24.20;;;12.20;;
20397;SDS011;10358;49.590;11.030;2023-03-07T01:57:28;24.80;;;12.83;;
20397;SDS011;10358;49.590;11.030;2023-03-07T02:02:25;23.30;;;12.13;;
20397;SDS011;10358;49.590;11.030;2023-03-07T02:07:47;25.90;;;12.47;;
20397;SDS011;10358;49.590;11.030;2023-03-07T02:10:14;25.37;;;12.30;;
20397;SDS011;10358;49.590;11.030;2023-03-07T02:12:42;23.17;;;12.00;;
20397;SDS011;10358;49.590;11.030;2023-03-07T02:15:09;27.97;;;12.00;;
20397;SDS011;10358;49.590;11.030;2023-03-07T02:17:36;21.63;;;11.30;;
20397;SDS011;10358;49.590;11.030;2023-03-07T02:22:53;22.63;;;11.73;;
20397;SDS011;10358;49.590;11.030;2023-03-07T02:27:51;23.30;;;11.93;;
20397;SDS011;10358;49.590;11.030;2023-03-07T02:30:19;22.43;;;12.23;;
20397;SDS011;10358;49.590;11.030;2023-03-07T02:32:44;24.43;;;12.33;;
20397;SDS011;10358;49.590;11.030;2023-03-07T02:35:14;23.53;;;11.90;;
20397;SDS011;10358;49.590;11.030;2023-03-07T02:37:45;22.37;;;12.33;;
20397;SDS011;10358;49.590;11.030;2023-03-07T02:40:15;27.90;;;12.03;;
20397;SDS011;10358;49.590;11.030;2023-03-07T02:42:44;24.73;;;12.70;;
20397;SDS011;10358;49.590;11.030;2023-03-07T02:45:12;23.93;;;11.73;;
20397;SDS011;10358;49.590;11.030;2023-03-07T02:47:40;23.40;;;11.43;;
20397;SDS011;10358;49.590;11.030;2023-03-07T02:50:07;23.00;;;11.47;;
20397;SDS011;10358;49.590;11.030;2023-03-07T02:52:34;23.27;;;12.53;;
20397;SDS011;10358;49.590;11.030;2023-03-07T02:54:59;25.07;;;12.57;;
20397;SDS011;10358;49.590;11.030;2023-03-07T02:57:25;25.23;;;12.77;;
20397;SDS011;10358;49.590;11.030;2023-03-07T02:59:50;29.00;;;12.93;;
20397;SDS011;10358;49.590;11.030;2023-03-07T03:02:16;26.80;;;13.67;;
20397;SDS011;10358;49.590;11.030;2023-03-07T03:04:41;22.17;;;12.27;;
20397;SDS011;10358;49.590;11.030;2023-03-07T03:07:07;25.33;;;12.37;;
20397;SDS011;10358;49.590;11.030;2023-03-07T03:09:32;23.80;;;11.53;;
20397;SDS011;10358;49.590;11.030;2023-03-07T03:11:58;25.23;;;12.40;;
20397;SDS011;10358;49.590;11.030;2023-03-07T03:14:23;25.10;;;13.00;;
20397;SDS011;10358;49.590;11.030;2023-03-07T03:16:52;25.00;;;12.67;;
20397;SDS011;10358;49.590;11.030;2023-03-07T03:19:18;25.53;;;12.57;;
20397;SDS011;10358;49.590;11.030;2023-03-07T03:21:44;24.57;;;13.20;;
20397;SDS011;10358;49.590;11.030;2023-03-07T03:24:10;25.13;;;12.60;;
20397;SDS011;10358;49.590;11.030;2023-03-07T03:26:36;26.77;;;13.33;;
20397;SDS011;10358;49.590;11.030;2023-03-07T03:29:02;24.93;;;13.27;;
20397;SDS011;10358;49.590;11.030;2023-03-07T03:31:29;24.93;;;12.43;;
20397;SDS011;10358;49.590;11.030;2023-03-07T03:33:55;24.93;;;12.87;;
20397;SDS011;10358;49.590;11.030;2023-03-07T03:36:22;24.27;;;13.07;;
20397;SDS011;10358;49.590;11.030;2023-03-07T03:38:52;25.67;;;13.30;;
20397;SDS011;10358;49.590;11.030;2023-03-07T03:41:19;26.73;;;12.53;;
20397;SDS011;10358;49.590;11.030;2023-03-07T03:43:44;28.10;;;14.23;;
20397;SDS011;10358;49.590;11.030;2023-03-07T03:46:10;28.67;;;14.23;;
20397;SDS011;10358;49.590;11.030;2023-03-07T03:48:35;26.07;;;13.53;;
20397;SDS011;10358;49.590;11.030;2023-03-07T03:51:08;27.17;;;13.53;;
20397;SDS011;10358;49.590;11.030;2023-03-07T03:53:36;26.27;;;13.57;;
20397;SDS011;10358;49.590;11.030;2023-03-07T03:56:08;25.70;;;13.10;;
20397;SDS011;10358;49.590;11.030;2023-03-07T03:58:37;26.57;;;12.93;;
20397;SDS011;10358;49.590;11.030;2023-03-07T04:01:04;25.60;;;13.50;;
20397;SDS011;10358;49.590;11.030;2023-03-07T04:03:32;27.97;;;13.90;;
20397;SDS011;10358;49.590;11.030;2023-03-07T04:06:09;26.40;;;13.50;;
20397;SDS011;10358;49.590;11.030;2023-03-07T04:08:36;26.00;;;12.83;;
20397;SDS011;10358;49.590;11.030;2023-03-07T04:11:02;27.37;;;13.60;;
20397;SDS011;10358;49.590;11.030;2023-03-07T04:13:30;27.60;;;13.17;;
20397;SDS011;10358;49.590;11.030;2023-03-07T04:15:56;26.73;;;12.97;;
20397;SDS011;10358;49.590;11.030;2023-03-07T04:18:22;26.63;;;14.00;;
20397;SDS011;10358;49.590;11.030;2023-03-07T04:20:48;31.60;;;14.53;;
20397;SDS011;10358;49.590;11.030;2023-03-07T04:23:15;28.13;;;13.27;;
20397;SDS011;10358;49.590;11.030;2023-03-07T04:25:52;25.97;;;13.60;;
20397;SDS011;10358;49.590;11.030;2023-03-07T04:28:22;26.50;;;12.60;;
20397;SDS011;10358;49.590;11.030;2023-03-07T04:30:49;26.93;;;13.07;;
20397;SDS011;10358;49.590;11.030;2023-03-07T04:33:16;25.47;;;13.07;;
20397;SDS011;10358;49.590;11.030;2023-03-07T04:35:42;27.63;;;12.63;;
20397;SDS011;10358;49.590;11.030;2023-03-07T04:38:09;26.90;;;13.03;;
20397;SDS011;10358;49.590;11.030;2023-03-07T04:40:35;27.13;;;14.17;;
20397;SDS011;10358;49.590;11.030;2023-03-07T04:43:01;26.07;;;12.77;;
20397;SDS011;10358;49.590;11.030;2023-03-07T04:45:27;26.17;;;13.67;;
20397;SDS011;10358;49.590;11.030;2023-03-07T04:47:54;28.63;;;13.47;;
20397;SDS011;10358;49.590;11.030;2023-03-07T04:50:19;24.60;;;12.30;;
20397;SDS011;10358;49.590;11.030;2023-03-07T04:52:45;27.40;;;12.20;;
20397;SDS011;10358;49.590;11.030;2023-03-07T04:55:10;27.10;;;13.23;;
20397;SDS011;10358;49.590;11.030;2023-03-07T04:57:36;25.23;;;12.57;;
20397;SDS011;10358;49.590;11.030;2023-03-07T05:00:03;25.77;;;13.13;;
20397;SDS011;10358;49.590;11.030;2023-03-07T05:02:33;27.67;;;13.17;;
20397;SDS011;10358;49.590;11.030;2023-03-07T05:04:59;23.77;;;13.03;;
20397;SDS011;10358;49.590;11.030;2023-03-07T05:07:25;25.67;;;13.13;;
20397;SDS011;10358;49.590;11.030;2023-03-07T05:09:51;25.90;;;13.37;;
20397;SDS011;10358;49.590;11.030;2023-03-07T05:12:17;24.87;;;13.10;;
20397;SDS011;10358;49.590;11.030;2023-03-07T05:14:42;28.77;;;13.40;;
20397;SDS011;10358;49.590;11.030;2023-03-07T05:17:08;23.93;;;13.00;;
20397;SDS011;10358;49.590;11.030;2023-03-07T05:19:34;24.70;;;12.93;;
20397;SDS011;10358;49.590;11.030;2023-03-07T05:21:59;25.70;;;13.40;;
20397;SDS011;10358;49.590;11.030;2023-03-07T05:24:26;26.03;;;13.37;;
20397;SDS011;10358;49.590;11.030;2023-03-07T05:26:51;26.87;;;13.13;;
20397;SDS011;10358;49.590;11.030;2023-03-07T05:29:17;23.60;;;12.40;;
20397;SDS011;10358;49.590;11.030;2023-03-07T05:31:43;22.00;;;12.57;;
20397;SDS011;10358;49.590;11.030;2023-03-07T05:34:08;24.00;;;11.90;;
20397;SDS011;10358;49.590;11.030;2023-03-07T05:36:37;23.37;;;12.43;;
20397;SDS011;10358;49.590;11.030;2023-03-07T05:39:02;21.93;;;11.83;;
20397;SDS011;10358;49.590;11.030;2023-03-07T05:41:29;22.07;;;12.00;;
20397;SDS011;10358;49.590;11.030;2023-03-07T05:43:54;22.97;;;12.23;;
20397;SDS011;10358;49.590;11.030;2023-03-07T05:46:20;23.97;;;11.90;;
20397;SDS011;10358;49.590;11.030;2023-03-07T05:48:45;24.27;;;12.03;;
20397;SDS011;10358;49.590;11.030;2023-03-07T05:51:11;22.43;;;11.80;;
20397;SDS011;10358;49.590;11.030;2023-03-07T05:53:37;25.07;;;12.17;;
20397;SDS011;10358;49.590;11.030;2023-03-07T05:56:02;25.07;;;11.90;;
20397;SDS011;10358;49.590;11.030;2023-03-07T05:58:28;22.67;;;11.90;;
20397;SDS011;10358;49.590;11.030;2023-03-07T06:00:54;23.23;;;12.73;;
20397;SDS011;10358;49.590;11.030;2023-03-07T06:03:19;22.27;;;11.03;;
20397;SDS011;10358;49.590;11.030;2023-03-07T06:05:47;23.73;;;12.43;;
20397;SDS011;10358;49.590;11.030;2023-03-07T06:08:14;22.70;;;11.93;;
20397;SDS011;10358;49.590;11.030;2023-03-07T06:10:40;22.27;;;11.93;;
20397;SDS011;10358;49.590;11.030;2023-03-07T06:13:10;27.30;;;12.50;;
20397;SDS011;10358;49.590;11.030;2023-03-07T06:15:41;22.70;;;11.70;;
20397;SDS011;10358;49.590;11.030;2023-03-07T06:18:07;21.57;;;11.53;;
20397;SDS011;10358;49.590;11.030;2023-03-07T06:20:33;26.17;;;12.00;;
20397;SDS011;10358;49.590;11.030;2023-03-07T06:22:59;23.23;;;11.97;;
20397;SDS011;10358;49.590;11.030;2023-03-07T06:25:25;24.60;;;11.50;;
20397;SDS011;10358;49.590;11.030;2023-03-07T06:27:50;21.73;;;11.60;;
20397;SDS011;10358;49.590;11.030;2023-03-07T06:30:16;24.80;;;11.70;;
20397;SDS011;10358;49.590;11.030;2023-03-07T06:32:45;22.93;;;11.93;;
20397;SDS011;10358;49.590;11.030;2023-03-07T06:35:19;19.13;;;10.93;;
20397;SDS011;10358;49.590;11.030;2023-03-07T06:37:47;22.63;;;11.60;;
20397;SDS011;10358;49.590;11.030;2023-03-07T06:40:15;24.03;;;12.07;;
20397;SDS011;10358;49.590;11.030;2023-03-07T06:42:40;20.03;;;11.47;;
20397;SDS011;10358;49.590;11.030;2023-03-07T06:45:06;25.13;;;12.77;;
20397;SDS011;10358;49.590;11.030;2023-03-07T06:47:32;23.03;;;12.53;;
20397;SDS011;10358;49.590;11.030;2023-03-07T06:49:57;24.20;;;11.90;;
20397;SDS011;10358;49.590;11.030;2023-03-07T06:52:26;21.83;;;11.67;;
20397;SDS011;10358;49.590;11.030;2023-03-07T06:54:54;23.73;;;12.40;;
20397;SDS011;10358;49.590;11.030;2023-03-07T06:57:20;22.37;;;12.30;;
20397;SDS011;10358;49.590;11.030;2023-03-07T06:59:46;21.90;;;12.10;;
20397;SDS011;10358;49.590;11.030;2023-03-07T07:02:12;24.03;;;12.57;;
20397;SDS011;10358;49.590;11.030;2023-03-07T07:04:39;25.00;;;12.13;;
20397;SDS011;10358;49.590;11.030;2023-03-07T07:07:04;21.53;;;11.73;;
20397;SDS011;10358;49.590;11.030;2023-03-07T07:09:31;23.80;;;12.60;;
20397;SDS011;10358;49.590;11.030;2023-03-07T07:12:00;25.77;;;13.23;;
20397;SDS011;10358;49.590;11.030;2023-03-07T07:14:26;25.23;;;12.40;;
20397;SDS011;10358;49.590;11.030;2023-03-07T07:16:52;28.13;;;13.50;;
20397;SDS011;10358;49.590;11.030;2023-03-07T07:19:17;30.07;;;12.77;;
20397;SDS011;10358;49.590;11.030;2023-03-07T07:21:43;25.37;;;12.97;;
20397;SDS011;10358;49.590;11.030;2023-03-07T07:24:11;23.33;;;12.87;;
20397;SDS011;10358;49.590;11.030;2023-03-07T07:26:37;27.67;;;13.00;;
20397;SDS011;10358;49.590;11.030;2023-03-07T07:29:03;22.50;;;11.90;;
20397;SDS011;10358;49.590;11.030;2023-03-07T07:31:29;28.00;;;12.60;;
20397;SDS011;10358;49.590;11.030;2023-03-07T07:33:54;25.27;;;12.47;;
20397;SDS011;10358;49.590;11.030;2023-03-07T07:36:20;23.23;;;12.40;;
20397;SDS011;10358;49.590;11.030;2023-03-07T07:38:47;24.63;;;11.43;;
20397;SDS011;10358;49.590;11.030;2023-03-07T07:41:13;22.37;;;11.77;;
20397;SDS011;10358;49.590;11.030;2023-03-07T07:43:39;20.90;;;10.53;;
20397;SDS011;10358;49.590;11.030;2023-03-07T07:46:05;18.93;;;10.43;;
20397;SDS011;10358;49.590;11.030;2023-03-07T07:48:31;23.50;;;12.20;;
20397;SDS011;10358;49.590;11.030;2023-03-07T07:51:03;23.70;;;10.93;;
20397;SDS011;10358;49.590;11.030;2023-03-07T07:53:29;24.13;;;11.90;;
20397;SDS011;10358;49.590;11.030;2023-03-07T07:55:55;21.57;;;10.30;;
20397;SDS011;10358;49.590;11.030;2023-03-07T07:58:21;24.03;;;11.07;;
20397;SDS011;10358;49.590;11.030;2023-03-07T08:00:47;23.60;;;10.87;;
20397;SDS011;10358;49.590;11.030;2023-03-07T08:03:12;21.27;;;11.40;;
20397;SDS011;10358;49.590;11.030;2023-03-07T08:05:42;23.80;;;11.87;;
20397;SDS011;10358;49.590;11.030;2023-03-07T08:08:09;20.70;;;10.60;;
20397;SDS011;10358;49.590;11.030;2023-03-07T08:10:34;20.00;;;11.20;;
20397;SDS011;10358;49.590;11.030;2023-03-07T08:13:00;21.20;;;11.23;;
20397;SDS011;10358;49.590;11.030;2023-03-07T08:15:25;20.80;;;10.97;;
20397;SDS011;10358;49.590;11.030;2023-03-07T08:17:51;18.93;;;9.90;;
20397;SDS011;10358;49.590;11.030;2023-03-07T08:20:17;19.03;;;10.50;;
20397;SDS011;10358;49.590;11.030;2023-03-07T08:22:47;20.70;;;10.27;;
20397;SDS011;10358;49.590;11.030;2023-03-07T08:25:15;26.63;;;10.33;;
20397;SDS011;10358;49.590;11.030;2023-03-07T08:27:46;20.93;;;10.33;;
20397;SDS011;10358;49.590;11.030;2023-03-07T08:30:13;16.83;;;9.50;;
20397;SDS011;10358;49.590;11.030;2023-03-07T08:32:39;18.10;;;10.10;;
20397;SDS011;10358;49.590;11.030;2023-03-07T08:35:05;18.00;;;9.67;;
20397;SDS011;10358;49.590;11.030;2023-03-07T08:37:31;17.67;;;9.20;;
20397;SDS011;10358;49.590;11.030;2023-03-07T08:39:56;18.83;;;9.63;;
20397;SDS011;10358;49.590;11.030;2023-03-07T08:42:22;19.83;;;10.23;;
20397;SDS011;10358;49.590;11.030;2023-03-07T08:44:47;18.33;;;9.33;;
20397;SDS011;10358;49.590;11.030;2023-03-07T08:47:13;16.83;;;9.20;;
20397;SDS011;10358;49.590;11.030;2023-03-07T08:49:39;18.57;;;9.87;;
20397;SDS011;10358;49.590;11.030;2023-03-07T08:52:05;15.50;;;8.80;;
20397;SDS011;10358;49.590;11.030;2023-03-07T08:54:30;15.53;;;8.70;;
20397;SDS011;10358;49.590;11.030;2023-03-07T08:56:56;17.83;;;9.37;;
20397;SDS011;10358;49.590;11.030;2023-03-07T08:59:23;16.27;;;9.23;;
20397;SDS011;10358;49.590;11.030;2023-03-07T09:01:48;16.47;;;8.60;;
20397;SDS011;10358;49.590;11.030;2023-03-07T09:04:14;15.33;;;8.53;;
20397;SDS011;10358;49.590;11.030;2023-03-07T09:06:40;16.47;;;8.77;;
20397;SDS011;10358;49.590;11.030;2023-03-07T09:09:05;17.23;;;8.67;;
20397;SDS011;10358;49.590;11.030;2023-03-07T09:11:31;17.43;;;8.93;;
20397;SDS011;10358;49.590;11.030;2023-03-07T09:13:56;18.33;;;8.50;;
20397;SDS011;10358;49.590;11.030;2023-03-07T09:16:22;17.43;;;8.37;;
20397;SDS011;10358;49.590;11.030;2023-03-07T09:18:47;14.80;;;8.50;;
20397;SDS011;10358;49.590;11.030;2023-03-07T09:21:13;14.07;;;7.97;;
20397;SDS011;10358;49.590;11.030;2023-03-07T09:23:40;14.53;;;8.00;;
20397;SDS011;10358;49.590;11.030;2023-03-07T09:26:06;14.50;;;8.23;;
20397;SDS011;10358;49.590;11.030;2023-03-07T09:28:32;15.43;;;7.83;;
20397;SDS011;10358;49.590;11.030;2023-03-07T09:30:58;14.87;;;7.70;;
20397;SDS011;10358;49.590;11.030;2023-03-07T09:33:24;14.87;;;8.20;;
20397;SDS011;10358;49.590;11.030;2023-03-07T09:35:49;11.97;;;7.50;;
20397;SDS011;10358;49.590;11.030;2023-03-07T09:38:15;13.80;;;7.90;;
20397;SDS011;10358;49.590;11.030;2023-03-07T09:40:42;13.77;;;7.60;;
20397;SDS011;10358;49.590;11.030;2023-03-07T09:43:20;13.07;;;7.40;;
20397;SDS011;10358;49.590;11.030;2023-03-07T09:45:55;13.87;;;7.77;;
20397;SDS011;10358;49.590;11.030;2023-03-07T09:54:16;14.13;;;7.63;;
20397;SDS011;10358;49.590;11.030;2023-03-07T09:56:48;12.63;;;8.03;;
20397;SDS011;10358;49.590;11.030;2023-03-07T10:04:45;12.90;;;7.13;;
20397;SDS011;10358;49.590;11.030;2023-03-07T10:07:32;13.87;;;7.73;;
20397;SDS011;10358;49.590;11.030;2023-03-07T10:10:01;12.73;;;7.27;;
20397;SDS011;10358;49.590;11.030;2023-03-07T10:34:41;12.10;;;7.27;;
20397;SDS011;10358;49.590;11.030;2023-03-07T10:37:17;13.97;;;6.87;;
20397;SDS011;10358;49.590;11.030;2023-03-07T10:39:47;14.00;;;7.87;;
20397;SDS011;10358;49.590;11.030;2023-03-07T10:42:16;13.37;;;7.40;;
20397;SDS011;10358;49.590;11.030;2023-03-07T10:44:45;15.07;;;7.43;;
20397;SDS011;10358;49.590;11.030;2023-03-07T10:47:20;13.23;;;7.17;;
20397;SDS011;10358;49.590;11.030;2023-03-07T10:49:51;14.00;;;7.93;;
20397;SDS011;10358;49.590;11.030;2023-03-07T10:54:50;12.30;;;7.10;;
20397;SDS011;10358;49.590;11.030;2023-03-07T10:57:17;15.60;;;7.10;;
20397;SDS011;10358;49.590;11.030;2023-03-07T10:59:49;12.53;;;6.80;;
20397;SDS011;10358;49.590;11.030;2023-03-07T11:02:26;13.23;;;6.93;;
20397;SDS011;10358;49.590;11.030;2023-03-07T11:05:01;10.67;;;6.60;;
20397;SDS011;10358;49.590;11.030;2023-03-07T11:07:41;11.40;;;6.87;;
20397;SDS011;10358;49.590;11.030;2023-03-07T11:10:52;10.40;;;6.43;;
20397;SDS011;10358;49.590;11.030;2023-03-07T11:12:58;11.50;;;5.93;;
20397;SDS011;10358;49.590;11.030;2023-03-07T11:15:36;14.43;;;6.13;;
20397;SDS011;10358;49.590;11.030;2023-03-07T11:18:02;9.80;;;5.80;;
20397;SDS011;10358;49.590;11.030;2023-03-07T11:20:29;12.37;;;6.13;;
20397;SDS011;10358;49.590;11.030;2023-03-07T11:23:19;9.87;;;5.70;;
20397;SDS011;10358;49.590;11.030;2023-03-07T11:25:50;10.00;;;6.13;;
20397;SDS011;10358;49.590;11.030;2023-03-07T11:30:52;9.23;;;5.97;;
20397;SDS011;10358;49.590;11.030;2023-03-07T11:36:00;11.50;;;6.40;;
20397;SDS011;10358;49.590;11.030;2023-03-07T11:38:48;12.57;;;6.20;;
20397;SDS011;10358;49.590;11.030;2023-03-07T12:25:25;11.13;;;5.20;;
20397;SDS011;10358;49.590;11.030;2023-03-07T12:36:16;10.37;;;5.30;;
20397;SDS011;10358;49.590;11.030;2023-03-07T12:44:16;8.97;;;5.20;;
20397;SDS011;10358;49.590;11.030;2023-03-07T12:47:20;12.73;;;5.80;;
20397;SDS011;10358;49.590;11.030;2023-03-07T12:55:58;17.97;;;6.40;;
20397;SDS011;10358;49.590;11.030;2023-03-07T12:58:50;13.07;;;5.27;;
20397;SDS011;10358;49.590;11.030;2023-03-07T13:01:59;7.90;;;4.87;;
20397;SDS011;10358;49.590;11.030;2023-03-07T13:04:32;8.67;;;4.80;;
20397;SDS011;10358;49.590;11.030;2023-03-07T13:07:12;10.87;;;4.67;;
20397;SDS011;10358;49.590;11.030;2023-03-07T13:09:42;9.50;;;5.23;;
20397;SDS011;10358;49.590;11.030;2023-03-07T13:14:46;9.63;;;5.23;;
20397;SDS011;10358;49.590;11.030;2023-03-07T13:27:51;11.30;;;5.20;;
20397;SDS011;10358;49.590;11.030;2023-03-07T13:30:22;9.93;;;4.50;;
20397;SDS011;10358;49.590;11.030;2023-03-07T13:37:56;6.63;;;4.27;;
20397;SDS011;10358;49.590;11.030;2023-03-07T13:43:00;7.93;;;4.60;;
20397;SDS011;10358;49.590;11.030;2023-03-07T14:01:34;11.23;;;5.40;;
20397;SDS011;10358;49.590;11.030;2023-03-07T14:06:59;7.20;;;4.67;;
20397;SDS011;10358;49.590;11.030;2023-03-07T14:09:47;8.60;;;5.17;;
20397;SDS011;10358;49.590;11.030;2023-03-07T14:15:23;9.20;;;5.30;;
20397;SDS011;10358;49.590;11.030;2023-03-07T14:26:36;9.40;;;4.87;;
20397;SDS011;10358;49.590;11.030;2023-03-07T14:29:13;15.40;;;5.33;;
20397;SDS011;10358;49.590;11.030;2023-03-07T14:31:46;8.57;;;4.50;;
20397;SDS011;10358;49.590;11.030;2023-03-07T14:34:17;7.50;;;4.60;;
20397;SDS011;10358;49.590;11.030;2023-03-07T14:36:53;7.47;;;4.90;;
20397;SDS011;10358;49.590;11.030;2023-03-07T14:39:20;8.83;;;5.10;;
20397;SDS011;10358;49.590;11.030;2023-03-07T14:44:38;12.50;;;5.30;;
20397;SDS011;10358;49.590;11.030;2023-03-07T14:52:42;9.23;;;4.97;;
20397;SDS011;10358;49.590;11.030;2023-03-07T14:55:17;10.20;;;5.17;;
20397;SDS011;10358;49.590;11.030;2023-03-07T14:57:45;10.60;;;5.07;;
20397;SDS011;10358;49.590;11.030;2023-03-07T15:02:52;12.90;;;5.53;;
20397;SDS011;10358;49.590;11.030;2023-03-07T15:05:21;12.13;;;6.23;;
20397;SDS011;10358;49.590;11.030;2023-03-07T15:07:51;8.70;;;5.33;;
20397;SDS011;10358;49.590;11.030;2023-03-07T15:10:20;9.40;;;4.77;;
20397;SDS011;10358;49.590;11.030;2023-03-07T15:12:50;11.23;;;5.70;;
20397;SDS011;10358;49.590;11.030;2023-03-07T15:15:35;10.27;;;5.07;;
20397;SDS011;10358;49.590;11.030;2023-03-07T15:18:09;8.63;;;5.30;;
20397;SDS011;10358;49.590;11.030;2023-03-07T15:20:47;12.73;;;5.37;;
20397;SDS011;10358;49.590;11.030;2023-03-07T15:23:17;9.17;;;5.00;;
20397;SDS011;10358;49.590;11.030;2023-03-07T15:25:54;11.03;;;5.27;;
20397;SDS011;10358;49.590;11.030;2023-03-07T15:28:32;11.30;;;5.23;;
20397;SDS011;10358;49.590;11.030;2023-03-07T15:30:59;10.50;;;5.20;;
20397;SDS011;10358;49.590;11.030;2023-03-07T15:33:26;8.63;;;5.50;;
20397;SDS011;10358;49.590;11.030;2023-03-07T15:38:35;10.93;;;5.30;;
20397;SDS011;10358;49.590;11.030;2023-03-07T15:41:23;8.63;;;4.70;;
20397;SDS011;10358;49.590;11.030;2023-03-07T15:46:29;9.63;;;5.33;;
20397;SDS011;10358;49.590;11.030;2023-03-07T15:48:56;9.93;;;5.70;;
20397;SDS011;10358;49.590;11.030;2023-03-07T15:51:22;11.50;;;6.80;;
20397;SDS011;10358;49.590;11.030;2023-03-07T15:54:01;9.33;;;5.03;;
20397;SDS011;10358;49.590;11.030;2023-03-07T15:56:36;11.33;;;5.57;;
20397;SDS011;10358;49.590;11.030;2023-03-07T15:59:18;9.53;;;5.47;;
20397;SDS011;10358;49.590;11.030;2023-03-07T16:01:51;9.27;;;5.03;;
20397;SDS011;10358;49.590;11.030;2023-03-07T16:07:02;11.23;;;5.43;;
20397;SDS011;10358;49.590;11.030;2023-03-07T16:09:28;10.30;;;5.40;;
20397;SDS011;10358;49.590;11.030;2023-03-07T16:11:54;9.83;;;5.70;;
20397;SDS011;10358;49.590;11.030;2023-03-07T16:14:23;10.87;;;5.17;;
20397;SDS011;10358;49.590;11.030;2023-03-07T16:16:54;12.80;;;5.30;;
20397;SDS011;10358;49.590;11.030;2023-03-07T16:19:22;10.90;;;5.53;;
20397;SDS011;10358;49.590;11.030;2023-03-07T16:21:48;9.00;;;5.60;;
20397;SDS011;10358;49.590;11.030;2023-03-07T16:24:13;9.97;;;5.57;;
20397;SDS011;10358;49.590;11.030;2023-03-07T16:26:39;9.97;;;6.07;;
20397;SDS011;10358;49.590;11.030;2023-03-07T16:29:40;11.37;;;5.07;;
20397;SDS011;10358;49.590;11.030;2023-03-07T16:31:59;11.20;;;5.40;;
20397;SDS011;10358;49.590;11.030;2023-03-07T16:34:25;12.27;;;5.30;;
20397;SDS011;10358;49.590;11.030;2023-03-07T16:36:50;10.83;;;5.53;;
20397;SDS011;10358;49.590;11.030;2023-03-07T16:39:16;14.33;;;5.37;;
20397;SDS011;10358;49.590;11.030;2023-03-07T16:41:46;14.00;;;5.87;;
20397;SDS011;10358;49.590;11.030;2023-03-07T16:44:17;9.57;;;5.13;;
20397;SDS011;10358;49.590;11.030;2023-03-07T16:46:45;8.40;;;4.70;;
20397;SDS011;10358;49.590;11.030;2023-03-07T16:49:19;8.33;;;5.60;;
20397;SDS011;10358;49.590;11.030;2023-03-07T16:51:45;8.20;;;5.20;;
20397;SDS011;10358;49.590;11.030;2023-03-07T16:54:10;11.13;;;5.50;;
20397;SDS011;10358;49.590;11.030;2023-03-07T16:56:37;12.27;;;5.97;;
20397;SDS011;10358;49.590;11.030;2023-03-07T16:59:06;8.60;;;5.00;;
20397;SDS011;10358;49.590;11.030;2023-03-07T17:01:37;9.03;;;5.07;;
20397;SDS011;10358;49.590;11.030;2023-03-07T17:04:03;11.73;;;5.67;;
20397;SDS011;10358;49.590;11.030;2023-03-07T17:06:29;10.00;;;5.53;;
20397;SDS011;10358;49.590;11.030;2023-03-07T17:08:54;8.97;;;4.80;;
20397;SDS011;10358;49.590;11.030;2023-03-07T17:11:23;9.63;;;5.50;;
20397;SDS011;10358;49.590;11.030;2023-03-07T17:13:52;11.33;;;5.87;;
20397;SDS011;10358;49.590;11.030;2023-03-07T17:16:19;12.87;;;5.70;;
20397;SDS011;10358;49.590;11.030;2023-03-07T17:18:45;9.80;;;5.13;;
20397;SDS011;10358;49.590;11.030;2023-03-07T17:21:12;8.73;;;5.70;;
20397;SDS011;10358;49.590;11.030;2023-03-07T17:23:39;13.80;;;5.73;;
20397;SDS011;10358;49.590;11.030;2023-03-07T17:26:05;9.33;;;5.30;;
20397;SDS011;10358;49.590;11.030;2023-03-07T17:28:31;11.27;;;6.00;;
20397;SDS011;10358;49.590;11.030;2023-03-07T17:30:57;13.50;;;6.47;;